createdAt,value
2022-08-29T00:01:35.260Z,19.45
2022-08-29T00:04:37.055Z,19.37
2022-08-29T00:07:38.539Z,19.29
2022-08-29T00:10:41.213Z,19.38
2022-08-29T00:13:42.701Z,19.25
2022-08-29T00:16:44.423Z,19.14
2022-08-29T00:19:45.965Z,19.10
2022-08-29T00:22:48.121Z,19.09
2022-08-29T00:25:49.561Z,18.82
2022-08-29T00:28:51.021Z,18.83
2022-08-29T00:31:52.471Z,18.79
2022-08-29T00:34:53.956Z,18.71
2022-08-29T00:37:55.959Z,18.71
2022-08-29T00:40:58.544Z,18.82
2022-08-29T00:44:00.066Z,18.79
2022-08-29T00:47:08.785Z,18.85
2022-08-29T00:50:25.487Z,18.84
2022-08-29T00:53:48.304Z,18.80
2022-08-29T00:56:50.961Z,18.77
2022-08-29T00:59:52.826Z,18.79
2022-08-29T01:02:54.346Z,18.76
2022-08-29T01:05:55.958Z,18.70
2022-08-29T01:08:58.330Z,18.63
2022-08-29T01:12:17.983Z,18.62
2022-08-29T01:15:19.405Z,18.51
2022-08-29T01:18:22.885Z,18.53
2022-08-29T01:21:42.640Z,18.40
2022-08-29T01:24:50.844Z,18.40
2022-08-29T01:28:03.113Z,18.30
2022-08-29T01:31:09.587Z,18.43
2022-08-29T01:34:12.263Z,18.38
2022-08-29T01:37:16.130Z,18.19
2022-08-29T01:40:17.576Z,18.20
2022-08-29T01:43:19.196Z,18.09
2022-08-29T01:46:24.001Z,18.14
2022-08-29T01:49:26.005Z,18.23
2022-08-29T01:52:27.948Z,18.09
2022-08-29T01:55:29.373Z,18.03
2022-08-29T01:58:30.772Z,18.04
2022-08-29T02:01:39.858Z,17.98
2022-08-29T02:04:41.305Z,18.08
2022-08-29T02:07:42.742Z,18.04
2022-08-29T02:10:44.150Z,18.06
2022-08-29T02:13:49.269Z,18.11
2022-08-29T02:16:51.107Z,18.07
2022-08-29T02:19:52.557Z,17.98
2022-08-29T02:22:53.968Z,18.03
2022-08-29T02:25:55.412Z,18.08
2022-08-29T02:28:57.393Z,18.09
2022-08-29T02:31:58.911Z,18.12
2022-08-29T02:35:00.357Z,18.14
2022-08-29T02:38:02.847Z,17.89
2022-08-29T02:41:04.306Z,17.76
2022-08-29T02:44:05.836Z,17.77
2022-08-29T02:47:09.249Z,17.77
2022-08-29T02:50:11.749Z,17.83
2022-08-29T02:53:15.091Z,17.80
2022-08-29T02:56:17.354Z,17.75
2022-08-29T02:59:18.766Z,17.62
2022-08-29T03:02:20.274Z,17.63
2022-08-29T03:05:27.433Z,17.56
2022-08-29T03:08:29.368Z,17.49
2022-08-29T03:11:31.027Z,17.47
2022-08-29T03:14:32.469Z,17.47
2022-08-29T03:17:34.452Z,17.46
2022-08-29T03:20:37.426Z,17.41
2022-08-29T03:23:38.885Z,17.37
2022-08-29T03:26:40.360Z,17.38
2022-08-29T03:29:41.988Z,17.24
2022-08-29T03:32:43.997Z,17.15
2022-08-29T03:35:45.421Z,17.14
2022-08-29T03:38:48.290Z,17.04
2022-08-29T03:41:49.762Z,16.90
2022-08-29T03:44:51.175Z,16.89
2022-08-29T03:47:52.877Z,16.94
2022-08-29T03:50:56.566Z,16.91
2022-08-29T03:53:58.253Z,16.80
2022-08-29T03:56:59.721Z,16.80
2022-08-29T04:00:10.348Z,16.94
2022-08-29T04:03:13.071Z,16.86
2022-08-29T04:06:14.528Z,16.88
2022-08-29T04:09:15.957Z,16.83
2022-08-29T04:12:17.428Z,16.74
2022-08-29T04:15:19.133Z,16.67
2022-08-29T04:18:21.609Z,16.58
2022-08-29T04:21:25.720Z,16.55
2022-08-29T04:24:31.052Z,16.55
2022-08-29T04:27:33.020Z,16.46
2022-08-29T04:30:35.704Z,16.48
2022-08-29T04:33:37.118Z,16.54
2022-08-29T04:36:41.736Z,16.50
2022-08-29T04:39:43.290Z,16.51
2022-08-29T04:42:47.041Z,16.52
2022-08-29T04:45:55.328Z,16.59
2022-08-29T04:48:59.508Z,16.65
2022-08-29T04:52:04.843Z,16.74
2022-08-29T04:55:07.750Z,16.68
2022-08-29T04:58:10.084Z,16.56
2022-08-29T05:01:14.010Z,16.52
2022-08-29T05:04:15.849Z,16.43
2022-08-29T05:07:17.263Z,16.40
2022-08-29T05:10:20.941Z,16.38
2022-08-29T05:13:22.862Z,16.38
2022-08-29T05:16:24.362Z,16.38
2022-08-29T05:19:25.821Z,16.34
2022-08-29T05:22:27.269Z,16.40
2022-08-29T05:25:28.763Z,16.37
2022-08-29T05:28:34.930Z,16.62
2022-08-29T05:31:38.583Z,16.78
2022-08-29T05:34:41.710Z,16.84
2022-08-29T05:37:43.121Z,16.97
2022-08-29T05:40:44.619Z,17.01
2022-08-29T05:43:46.557Z,17.21
2022-08-29T05:46:48.644Z,17.20
2022-08-29T05:49:50.112Z,17.28
2022-08-29T05:52:51.529Z,17.24
2022-08-29T05:55:54.018Z,17.31
2022-08-29T05:58:55.928Z,17.37
2022-08-29T06:01:57.476Z,17.41
2022-08-29T06:04:59.079Z,17.09
2022-08-29T06:08:01.158Z,17.00
2022-08-29T06:11:02.592Z,17.00
2022-08-29T06:14:04.809Z,17.29
2022-08-29T06:17:08.001Z,17.45
2022-08-29T06:20:11.600Z,17.52
2022-08-29T06:23:14.152Z,17.62
2022-08-29T06:26:16.973Z,17.72
2022-08-29T06:29:18.513Z,17.79
2022-08-29T06:32:19.934Z,17.68
2022-08-29T06:35:21.504Z,17.71
2022-08-29T06:38:23.038Z,17.75
2022-08-29T06:41:25.433Z,17.92
2022-08-29T06:44:30.669Z,17.99
2022-08-29T06:47:32.451Z,18.00
2022-08-29T06:50:43.577Z,18.20
2022-08-29T06:53:47.314Z,18.38
2022-08-29T06:56:50.643Z,18.43
2022-08-29T06:59:52.045Z,18.49
2022-08-29T07:02:54.103Z,18.58
2022-08-29T07:05:55.582Z,18.89
2022-08-29T07:08:58.432Z,19.01
2022-08-29T07:12:00.159Z,18.84
2022-08-29T07:15:02.114Z,18.87
2022-08-29T07:18:03.803Z,18.90
2022-08-29T07:21:09.706Z,18.92
2022-08-29T07:24:11.177Z,18.90
2022-08-29T07:27:13.912Z,19.02
2022-08-29T07:30:16.437Z,19.16
2022-08-29T07:33:17.863Z,19.36
2022-08-29T07:36:19.399Z,19.52
2022-08-29T07:39:22.063Z,19.54
2022-08-29T07:42:23.529Z,19.74
2022-08-29T07:45:25.047Z,19.83
2022-08-29T07:48:26.596Z,20.09
2022-08-29T07:51:28.481Z,20.18
2022-08-29T07:54:29.909Z,20.44
2022-08-29T07:57:31.824Z,20.69
2022-08-29T08:00:34.109Z,20.92
2022-08-29T08:03:35.744Z,21.18
2022-08-29T08:06:40.905Z,21.38
2022-08-29T08:09:44.222Z,21.64
2022-08-29T08:12:47.417Z,21.78
2022-08-29T08:15:48.873Z,21.57
2022-08-29T08:18:50.542Z,21.58
2022-08-29T08:21:51.994Z,21.52
2022-08-29T08:24:53.446Z,21.47
2022-08-29T08:27:55.029Z,21.61
2022-08-29T08:31:03.566Z,22.01
2022-08-29T08:34:07.318Z,22.45
2022-08-29T08:37:09.032Z,22.66
2022-08-29T08:40:21.216Z,22.88
2022-08-29T08:43:38.267Z,22.96
2022-08-29T08:46:47.404Z,22.99
2022-08-29T08:49:58.096Z,23.19
2022-08-29T08:53:12.727Z,23.31
2022-08-29T08:56:35.617Z,23.07
2022-08-29T08:59:43.326Z,22.82
2022-08-29T09:03:05.423Z,22.58
2022-08-29T09:06:19.906Z,22.97
2022-08-29T09:09:47.799Z,23.29
2022-08-29T09:13:07.602Z,23.41
2022-08-29T09:16:25.398Z,23.23
2022-08-29T09:19:26.862Z,23.13
2022-08-29T09:22:33.182Z,23.25
2022-08-29T09:25:36.275Z,23.58
2022-08-29T09:28:37.802Z,23.48
2022-08-29T09:31:40.924Z,23.45
2022-08-29T09:35:07.843Z,23.41
2022-08-29T09:38:29.752Z,23.31
2022-08-29T09:41:31.170Z,23.38
2022-08-29T09:44:35.401Z,23.71
2022-08-29T09:47:37.140Z,23.73
2022-08-29T09:50:38.548Z,23.71
2022-08-29T09:53:40.332Z,23.71
2022-08-29T09:56:55.194Z,23.88
2022-08-29T10:00:13.667Z,24.44
2022-08-29T10:03:22.248Z,24.40
2022-08-29T10:06:32.169Z,24.38
2022-08-29T10:09:33.602Z,24.41
2022-08-29T10:12:57.260Z,24.67
2022-08-29T10:16:22.807Z,24.60
2022-08-29T10:19:34.333Z,24.54
2022-08-29T10:23:02.967Z,24.54
2022-08-29T10:26:55.793Z,24.71
2022-08-29T10:30:24.134Z,24.75
2022-08-29T10:33:36.344Z,24.79
2022-08-29T10:36:41.633Z,24.85
2022-08-29T10:39:58.279Z,25.06
2022-08-29T10:43:12.190Z,25.31
2022-08-29T10:46:26.474Z,25.26
2022-08-29T10:49:51.862Z,25.66
2022-08-29T10:53:17.463Z,25.76
2022-08-29T10:56:33.053Z,25.87
2022-08-29T11:00:07.003Z,25.97
2022-08-29T11:03:23.035Z,26.14
2022-08-29T11:06:33.017Z,26.37
2022-08-29T11:09:47.085Z,26.24
2022-08-29T11:13:18.073Z,26.15
2022-08-29T11:16:25.691Z,26.19
2022-08-29T11:19:39.791Z,26.31
2022-08-29T11:22:52.056Z,26.47
2022-08-29T11:25:53.806Z,26.59
2022-08-29T11:29:04.745Z,26.63
2022-08-29T11:32:27.274Z,26.65
2022-08-29T11:36:07.745Z,26.76
2022-08-29T11:39:41.018Z,27.18
2022-08-29T11:42:52.693Z,27.27
2022-08-29T11:45:59.401Z,27.52
2022-08-29T11:49:25.429Z,27.81
2022-08-29T11:52:28.997Z,28.07
2022-08-29T11:55:40.692Z,28.12
2022-08-29T11:58:46.622Z,28.16
2022-08-29T12:01:58.127Z,28.43
2022-08-29T12:05:14.455Z,28.46
2022-08-29T12:08:37.395Z,28.68
2022-08-29T12:12:12.621Z,28.86
2022-08-29T12:15:34.272Z,28.95
2022-08-29T12:18:43.056Z,28.69
2022-08-29T12:21:47.045Z,28.71
2022-08-29T12:24:57.890Z,28.75
2022-08-29T12:28:17.748Z,29.04
2022-08-29T12:31:37.078Z,29.06
2022-08-29T12:35:02.621Z,28.96
2022-08-29T12:38:24.496Z,28.75
2022-08-29T12:41:38.329Z,28.88
2022-08-29T12:44:57.478Z,28.91
2022-08-29T12:48:05.212Z,29.00
2022-08-29T12:51:06.762Z,28.76
2022-08-29T12:54:11.386Z,28.78
2022-08-29T12:57:26.035Z,29.08
2022-08-29T13:00:30.959Z,29.26
2022-08-29T13:03:33.352Z,28.96
2022-08-29T13:06:34.858Z,29.09
2022-08-29T13:09:49.419Z,29.20
2022-08-29T13:12:50.979Z,28.75
2022-08-29T13:16:00.342Z,28.47
2022-08-29T13:19:11.338Z,28.80
2022-08-29T13:22:14.182Z,29.25
2022-08-29T13:25:17.347Z,29.13
2022-08-29T13:28:27.742Z,29.12
2022-08-29T13:31:36.155Z,29.08
2022-08-29T13:34:37.792Z,29.40
2022-08-29T13:37:41.497Z,29.25
2022-08-29T13:40:46.754Z,29.58
2022-08-29T13:43:48.742Z,29.60
2022-08-29T13:46:52.474Z,29.60
2022-08-29T13:49:59.467Z,29.75
2022-08-29T13:53:00.965Z,30.02
2022-08-29T13:56:03.365Z,30.31
2022-08-29T13:59:06.280Z,30.37
2022-08-29T14:02:09.872Z,30.19
2022-08-29T14:05:13.674Z,30.24
2022-08-29T14:08:15.342Z,30.18
2022-08-29T14:11:17.704Z,30.52
2022-08-29T14:14:19.148Z,30.69
2022-08-29T14:17:22.804Z,30.74
2022-08-29T14:20:25.571Z,30.82
2022-08-29T14:23:27.011Z,30.66
2022-08-29T14:26:28.426Z,30.79
2022-08-29T14:29:31.074Z,30.75
2022-08-29T14:32:32.657Z,30.99
2022-08-29T14:35:34.868Z,31.18
2022-08-29T14:38:36.420Z,31.19
2022-08-29T14:41:37.978Z,31.09
2022-08-29T14:44:39.428Z,31.18
2022-08-29T14:47:41.072Z,30.81
2022-08-29T14:50:42.484Z,29.71
2022-08-29T14:53:51.357Z,29.24
2022-08-29T14:56:55.905Z,29.67
2022-08-29T14:59:57.411Z,29.90
2022-08-29T15:02:59.955Z,30.30
2022-08-29T15:06:02.590Z,30.62
2022-08-29T15:09:04.867Z,30.77
2022-08-29T15:12:06.562Z,30.68
2022-08-29T15:15:08.445Z,30.56
2022-08-29T15:18:23.490Z,30.21
2022-08-29T15:21:32.378Z,30.04
2022-08-29T15:24:33.952Z,29.95
2022-08-29T15:27:35.389Z,29.80
2022-08-29T15:30:36.895Z,29.45
2022-08-29T15:33:39.435Z,29.15
2022-08-29T15:36:40.837Z,29.47
2022-08-29T15:39:42.729Z,29.67
2022-08-29T15:42:45.181Z,29.59
2022-08-29T15:45:46.626Z,29.40
2022-08-29T15:48:48.044Z,29.10
2022-08-29T15:51:52.840Z,29.04
2022-08-29T15:54:54.825Z,28.92
2022-08-29T15:57:56.521Z,28.88
2022-08-29T16:00:58.549Z,28.87
2022-08-29T16:04:00.021Z,29.05
2022-08-29T16:07:01.491Z,29.26
2022-08-29T16:10:10.392Z,29.61
2022-08-29T16:13:13.229Z,30.08
2022-08-29T16:16:15.345Z,30.21
2022-08-29T16:19:18.605Z,29.97
2022-08-29T16:22:20.065Z,29.80
2022-08-29T16:25:22.425Z,29.63
2022-08-29T16:28:23.845Z,29.51
2022-08-29T16:31:25.432Z,29.34
2022-08-29T16:34:28.113Z,29.15
2022-08-29T16:37:29.653Z,29.16
2022-08-29T16:40:32.206Z,28.87
2022-08-29T16:43:35.086Z,28.65
2022-08-29T16:46:36.581Z,28.63
2022-08-29T16:49:38.197Z,28.54
2022-08-29T16:52:39.868Z,28.58
2022-08-29T16:55:41.418Z,28.57
2022-08-29T16:58:59.979Z,28.46
2022-08-29T17:02:02.092Z,28.40
2022-08-29T17:05:04.765Z,28.39
2022-08-29T17:08:06.145Z,28.42
2022-08-29T17:11:07.715Z,28.40
2022-08-29T17:14:10.326Z,28.34
2022-08-29T17:17:11.873Z,28.24
2022-08-29T17:20:14.867Z,28.21
2022-08-29T17:23:16.395Z,28.19
2022-08-29T17:26:18.281Z,28.20
2022-08-29T17:29:20.036Z,28.15
2022-08-29T17:32:21.502Z,28.11
2022-08-29T17:35:23.004Z,28.01
2022-08-29T17:38:26.223Z,27.94
2022-08-29T17:41:27.774Z,27.91
2022-08-29T17:44:35.073Z,27.88
2022-08-29T17:47:36.552Z,27.81
2022-08-29T17:50:39.015Z,27.73
2022-08-29T17:53:40.554Z,27.66
2022-08-29T17:56:45.904Z,27.59
2022-08-29T17:59:47.314Z,27.48
2022-08-29T18:02:48.839Z,27.38
2022-08-29T18:05:50.363Z,27.24
2022-08-29T18:08:51.790Z,27.06
2022-08-29T18:11:54.445Z,26.95
2022-08-29T18:14:55.953Z,26.80
2022-08-29T18:17:57.526Z,26.62
2022-08-29T18:20:58.950Z,26.45
2022-08-29T18:24:01.308Z,26.23
2022-08-29T18:27:02.743Z,26.07
2022-08-29T18:30:06.839Z,26.03
2022-08-29T18:33:08.730Z,25.96
2022-08-29T18:36:10.393Z,25.86
2022-08-29T18:39:14.218Z,25.72
2022-08-29T18:42:36.813Z,25.61
2022-08-29T18:45:38.452Z,25.48
2022-08-29T18:48:41.152Z,25.48
2022-08-29T18:51:43.570Z,25.53
2022-08-29T18:54:45.117Z,25.56
2022-08-29T18:57:48.080Z,25.49
2022-08-29T19:00:50.183Z,25.44
2022-08-29T19:03:59.100Z,25.32
2022-08-29T19:07:00.518Z,25.30
2022-08-29T19:10:02.093Z,25.20
2022-08-29T19:13:08.024Z,25.07
2022-08-29T19:16:09.853Z,25.09
2022-08-29T19:19:13.163Z,25.09
2022-08-29T19:22:15.905Z,25.04
2022-08-29T19:25:17.428Z,25.02
2022-08-29T19:28:19.781Z,25.07
2022-08-29T19:31:22.685Z,24.93
2022-08-29T19:34:24.172Z,24.94
2022-08-29T19:37:26.415Z,24.95
2022-08-29T19:40:28.442Z,24.92
2022-08-29T19:43:33.120Z,24.89
2022-08-29T19:46:35.971Z,24.92
2022-08-29T19:49:40.997Z,24.98
2022-08-29T19:52:45.807Z,24.97
2022-08-29T19:55:47.300Z,24.95
2022-08-29T19:58:49.436Z,25.01
2022-08-29T20:01:51.143Z,25.07
2022-08-29T20:04:53.152Z,25.06
2022-08-29T20:07:54.685Z,25.02
2022-08-29T20:10:56.141Z,24.90
2022-08-29T20:13:58.346Z,24.53
2022-08-29T20:17:01.135Z,24.49
2022-08-29T20:20:05.765Z,24.19
2022-08-29T20:23:07.686Z,24.02
2022-08-29T20:26:09.121Z,24.08
2022-08-29T20:29:12.254Z,24.03
2022-08-29T20:32:13.791Z,23.95
2022-08-29T20:35:35.233Z,23.86
2022-08-29T20:38:36.780Z,23.88
2022-08-29T20:41:38.394Z,23.86
2022-08-29T20:44:43.355Z,23.86
2022-08-29T20:50:46.182Z,23.87
2022-08-29T20:53:47.691Z,23.85
2022-08-29T20:56:49.709Z,23.80
2022-08-29T20:59:51.117Z,23.81
2022-08-29T21:03:11.112Z,23.73
2022-08-29T21:06:12.592Z,23.64
2022-08-29T21:09:14.072Z,23.58
2022-08-29T21:12:16.518Z,23.48
2022-08-29T21:15:17.946Z,23.57
2022-08-29T21:18:20.284Z,23.55
2022-08-29T21:21:24.962Z,23.57
2022-08-29T21:24:27.447Z,23.54
2022-08-29T21:27:30.586Z,23.53
2022-08-29T21:30:32.076Z,23.38
2022-08-29T21:33:37.098Z,23.25
2022-08-29T21:36:39.276Z,23.27
2022-08-29T21:39:40.990Z,23.14
2022-08-29T21:42:42.904Z,23.01
2022-08-29T21:45:44.319Z,22.96
2022-08-29T21:48:46.132Z,22.87
2022-08-29T21:51:48.075Z,22.89
2022-08-29T21:54:49.922Z,22.75
2022-08-29T21:57:57.490Z,22.81
2022-08-29T22:00:58.920Z,22.80
2022-08-29T22:04:01.989Z,22.77
2022-08-29T22:07:03.491Z,22.61
2022-08-29T22:10:06.918Z,22.63
2022-08-29T22:13:08.673Z,22.64
2022-08-29T22:16:29.520Z,22.60
2022-08-29T22:19:31.632Z,22.59
2022-08-29T22:22:33.093Z,22.54
2022-08-29T22:25:34.770Z,22.52
2022-08-29T22:28:36.245Z,22.56
2022-08-29T22:31:37.714Z,22.70
2022-08-29T22:34:39.294Z,22.74
2022-08-29T22:37:41.308Z,22.78
2022-08-29T22:40:44.514Z,22.86
2022-08-29T22:43:46.086Z,22.92
2022-08-29T22:46:47.655Z,23.02
2022-08-29T22:49:49.080Z,23.22
2022-08-29T22:52:52.130Z,23.32
2022-08-29T22:55:53.607Z,23.41
2022-08-29T22:58:55.034Z,23.41
2022-08-29T23:01:56.882Z,23.45
2022-08-29T23:04:59.436Z,23.46
2022-08-29T23:08:00.892Z,23.46
2022-08-29T23:11:02.331Z,23.44
2022-08-29T23:14:04.254Z,23.38
2022-08-29T23:17:07.601Z,23.28
2022-08-29T23:20:11.726Z,23.18
2022-08-29T23:23:13.214Z,23.02
2022-08-29T23:26:14.616Z,22.87
2022-08-29T23:29:16.064Z,22.74
2022-08-29T23:32:17.921Z,22.46
2022-08-29T23:35:19.392Z,22.14
2022-08-29T23:38:22.281Z,22.13
2022-08-29T23:41:24.237Z,22.15
2022-08-29T23:44:25.705Z,22.11
2022-08-29T23:47:27.165Z,21.94
2022-08-29T23:50:28.593Z,22.04
2022-08-29T23:53:30.301Z,21.97
2022-08-29T23:56:32.059Z,21.85
2022-08-29T23:59:52.069Z,21.83
